MyWebLog Booking Liste

 

Nyhetsmelding

Kopirett © 2015 Værnes Flyklubb. Alle rettigheter reservert.
Joomla! er fri programvare utgitt under GNU/GPL License.
 

METAR

ENVA 291920Z 12004KT 9999 FEW015 SCT040 BKN078 03/02 Q0982 RMK WIND 670FT VRB01KT

TAF ENVA 2918/3018 VRB05KT 9999 -SHRA FEW020TCU BKN040 PROB30 TEMPO 2918/3009 27010KT SHRA BKN015CB